sensor_id;sensor_type;location;lat;lon;timestamp;pressure;altitude;pressure_sealevel;temperature;humidity
76448;BME280;65284;51.040;13.722;2023-06-10T00:01:04;99671.63;;;20.80;71.52
76448;BME280;65284;51.040;13.722;2023-06-10T00:03:31;99670.69;;;20.63;72.14
76448;BME280;65284;51.040;13.722;2023-06-10T00:05:57;99665.63;;;20.66;72.15
76448;BME280;65284;51.040;13.722;2023-06-10T00:08:24;99679.56;;;20.52;72.46
76448;BME280;65284;51.040;13.722;2023-06-10T00:10:50;99680.00;;;20.25;72.83
76448;BME280;65284;51.040;13.722;2023-06-10T00:13:17;99685.63;;;20.12;72.35
76448;BME280;65284;51.040;13.722;2023-06-10T00:15:43;99686.41;;;20.00;73.05
76448;BME280;65284;51.040;13.722;2023-06-10T00:18:10;99688.78;;;20.09;72.82
76448;BME280;65284;51.040;13.722;2023-06-10T00:20:36;99694.50;;;20.00;72.98
76448;BME280;65284;51.040;13.722;2023-06-10T00:23:04;99689.63;;;20.21;73.53
76448;BME280;65284;51.040;13.722;2023-06-10T00:25:33;99689.34;;;20.11;73.91
76448;BME280;65284;51.040;13.722;2023-06-10T00:27:59;99688.63;;;20.04;74.24
76448;BME280;65284;51.040;13.722;2023-06-10T00:30:26;99693.25;;;20.15;74.12
76448;BME280;65284;51.040;13.722;2023-06-10T00:32:52;99694.88;;;20.16;74.48
76448;BME280;65284;51.040;13.722;2023-06-10T00:35:19;99694.72;;;19.99;75.22
76448;BME280;65284;51.040;13.722;2023-06-10T00:37:45;99703.28;;;20.08;75.48
76448;BME280;65284;51.040;13.722;2023-06-10T00:40:12;99707.22;;;19.93;76.41
76448;BME280;65284;51.040;13.722;2023-06-10T00:42:38;99704.97;;;20.09;75.77
76448;BME280;65284;51.040;13.722;2023-06-10T00:45:05;99709.53;;;20.20;75.81
76448;BME280;65284;51.040;13.722;2023-06-10T00:47:33;99718.97;;;20.29;74.87
76448;BME280;65284;51.040;13.722;2023-06-10T00:50:02;99719.28;;;19.79;77.29
76448;BME280;65284;51.040;13.722;2023-06-10T00:52:29;99721.38;;;19.77;76.85
76448;BME280;65284;51.040;13.722;2023-06-10T00:54:56;99719.94;;;19.56;78.50
76448;BME280;65284;51.040;13.722;2023-06-10T00:57:23;99727.47;;;19.84;77.58
76448;BME280;65284;51.040;13.722;2023-06-10T00:59:50;99736.66;;;19.95;76.97
76448;BME280;65284;51.040;13.722;2023-06-10T01:02:17;99734.78;;;19.95;77.12
76448;BME280;65284;51.040;13.722;2023-06-10T01:04:43;99732.22;;;20.00;76.69
76448;BME280;65284;51.040;13.722;2023-06-10T01:07:26;99747.59;;;20.00;76.72
76448;BME280;65284;51.040;13.722;2023-06-10T01:10:01;99747.72;;;20.05;76.97
76448;BME280;65284;51.040;13.722;2023-06-10T01:12:46;99755.25;;;20.15;76.62
76448;BME280;65284;51.040;13.722;2023-06-10T01:15:16;99756.22;;;19.90;77.45
76448;BME280;65284;51.040;13.722;2023-06-10T01:17:57;99749.44;;;19.88;77.54
76448;BME280;65284;51.040;13.722;2023-06-10T01:20:26;99745.47;;;20.02;76.88
76448;BME280;65284;51.040;13.722;2023-06-10T01:22:56;99750.97;;;19.95;76.91
76448;BME280;65284;51.040;13.722;2023-06-10T01:25:25;99752.94;;;19.70;72.19
76448;BME280;65284;51.040;13.722;2023-06-10T01:30:30;99750.56;;;19.62;70.68
76448;BME280;65284;51.040;13.722;2023-06-10T01:33:01;99752.38;;;19.49;70.79
76448;BME280;65284;51.040;13.722;2023-06-10T01:35:30;99758.22;;;19.46;70.79
76448;BME280;65284;51.040;13.722;2023-06-10T01:37:58;99751.59;;;19.42;71.42
76448;BME280;65284;51.040;13.722;2023-06-10T01:40:25;99753.97;;;19.87;70.20
76448;BME280;65284;51.040;13.722;2023-06-10T01:42:52;99758.84;;;19.60;71.03
76448;BME280;65284;51.040;13.722;2023-06-10T01:45:18;99763.66;;;19.76;70.81
76448;BME280;65284;51.040;13.722;2023-06-10T01:47:45;99761.03;;;19.88;70.24
76448;BME280;65284;51.040;13.722;2023-06-10T01:50:11;99768.66;;;19.91;70.81
76448;BME280;65284;51.040;13.722;2023-06-10T01:52:38;99764.63;;;19.82;71.32
76448;BME280;65284;51.040;13.722;2023-06-10T01:55:05;99768.34;;;19.63;72.15
76448;BME280;65284;51.040;13.722;2023-06-10T01:57:32;99773.38;;;19.22;74.50
76448;BME280;65284;51.040;13.722;2023-06-10T01:59:58;99774.31;;;19.09;75.51
76448;BME280;65284;51.040;13.722;2023-06-10T02:02:25;99771.34;;;19.54;73.81
76448;BME280;65284;51.040;13.722;2023-06-10T02:04:51;99772.56;;;19.59;72.77
76448;BME280;65284;51.040;13.722;2023-06-10T02:07:18;99776.28;;;19.21;74.20
76448;BME280;65284;51.040;13.722;2023-06-10T02:09:44;99779.16;;;19.44;74.44
76448;BME280;65284;51.040;13.722;2023-06-10T02:12:11;99778.84;;;19.52;75.51
76448;BME280;65284;51.040;13.722;2023-06-10T02:14:37;99783.94;;;19.42;76.03
76448;BME280;65284;51.040;13.722;2023-06-10T02:17:04;99785.78;;;19.60;75.54
76448;BME280;65284;51.040;13.722;2023-06-10T02:19:30;99787.06;;;19.21;76.66
76448;BME280;65284;51.040;13.722;2023-06-10T02:21:57;99791.28;;;19.10;77.79
76448;BME280;65284;51.040;13.722;2023-06-10T02:24:23;99789.28;;;19.05;77.84
76448;BME280;65284;51.040;13.722;2023-06-10T02:26:50;99789.41;;;18.92;78.05
76448;BME280;65284;51.040;13.722;2023-06-10T02:29:18;99789.63;;;18.91;77.82
76448;BME280;65284;51.040;13.722;2023-06-10T02:31:44;99793.53;;;19.13;77.48
76448;BME280;65284;51.040;13.722;2023-06-10T02:34:10;99798.84;;;19.01;77.89
76448;BME280;65284;51.040;13.722;2023-06-10T02:36:37;99802.28;;;18.90;77.85
76448;BME280;65284;51.040;13.722;2023-06-10T02:39:03;99802.00;;;18.67;77.71
76448;BME280;65284;51.040;13.722;2023-06-10T02:41:30;99798.03;;;18.44;78.71
76448;BME280;65284;51.040;13.722;2023-06-10T02:43:57;99800.53;;;18.39;78.83
76448;BME280;65284;51.040;13.722;2023-06-10T02:46:23;99795.59;;;18.36;78.85
76448;BME280;65284;51.040;13.722;2023-06-10T02:48:50;99787.91;;;18.39;77.97
76448;BME280;65284;51.040;13.722;2023-06-10T02:51:18;99794.44;;;18.25;77.77
76448;BME280;65284;51.040;13.722;2023-06-10T02:53:44;99791.13;;;18.23;78.48
76448;BME280;65284;51.040;13.722;2023-06-10T02:56:11;99791.28;;;18.35;78.22
76448;BME280;65284;51.040;13.722;2023-06-10T02:58:38;99789.59;;;18.02;79.81
76448;BME280;65284;51.040;13.722;2023-06-10T03:01:05;99786.56;;;18.24;78.95
76448;BME280;65284;51.040;13.722;2023-06-10T03:03:31;99789.41;;;18.35;78.89
76448;BME280;65284;51.040;13.722;2023-06-10T03:06:01;99783.19;;;18.35;78.93
76448;BME280;65284;51.040;13.722;2023-06-10T03:08:28;99784.00;;;18.04;78.25
76448;BME280;65284;51.040;13.722;2023-06-10T03:10:54;99796.66;;;17.96;78.05
76448;BME280;65284;51.040;13.722;2023-06-10T03:13:21;99798.41;;;17.78;78.59
76448;BME280;65284;51.040;13.722;2023-06-10T03:15:48;99801.25;;;17.83;79.01
76448;BME280;65284;51.040;13.722;2023-06-10T03:18:14;99798.25;;;18.04;78.00
76448;BME280;65284;51.040;13.722;2023-06-10T03:20:41;99805.28;;;18.05;77.37
76448;BME280;65284;51.040;13.722;2023-06-10T03:23:08;99804.56;;;17.85;77.81
76448;BME280;65284;51.040;13.722;2023-06-10T03:25:35;99805.00;;;17.82;77.55
76448;BME280;65284;51.040;13.722;2023-06-10T03:28:02;99805.81;;;17.82;77.45
76448;BME280;65284;51.040;13.722;2023-06-10T03:30:28;99808.72;;;17.81;78.06
76448;BME280;65284;51.040;13.722;2023-06-10T03:32:55;99804.56;;;17.71;77.81
76448;BME280;65284;51.040;13.722;2023-06-10T03:35:21;99810.78;;;17.65;78.00
76448;BME280;65284;51.040;13.722;2023-06-10T03:37:48;99807.28;;;17.65;78.25
76448;BME280;65284;51.040;13.722;2023-06-10T03:40:15;99804.56;;;17.71;77.83
76448;BME280;65284;51.040;13.722;2023-06-10T03:42:41;99813.91;;;17.62;78.21
76448;BME280;65284;51.040;13.722;2023-06-10T03:45:10;99810.78;;;17.72;77.65
76448;BME280;65284;51.040;13.722;2023-06-10T03:47:37;99810.16;;;17.70;78.24
76448;BME280;65284;51.040;13.722;2023-06-10T03:50:04;99807.72;;;17.62;78.40
76448;BME280;65284;51.040;13.722;2023-06-10T03:52:31;99815.16;;;17.66;78.17
76448;BME280;65284;51.040;13.722;2023-06-10T03:54:57;99816.59;;;17.62;77.76
76448;BME280;65284;51.040;13.722;2023-06-10T03:57:24;99821.09;;;17.68;77.63
76448;BME280;65284;51.040;13.722;2023-06-10T03:59:51;99813.06;;;17.68;77.31
76448;BME280;65284;51.040;13.722;2023-06-10T04:02:17;99827.75;;;17.59;77.52
76448;BME280;65284;51.040;13.722;2023-06-10T04:04:44;99832.72;;;17.56;78.07
76448;BME280;65284;51.040;13.722;2023-06-10T04:07:11;99827.75;;;17.59;77.86
76448;BME280;65284;51.040;13.722;2023-06-10T04:09:38;99836.59;;;17.73;77.56
76448;BME280;65284;51.040;13.722;2023-06-10T04:12:05;99830.63;;;17.64;77.86
76448;BME280;65284;51.040;13.722;2023-06-10T04:14:36;99838.50;;;17.59;78.18
76448;BME280;65284;51.040;13.722;2023-06-10T04:17:05;99840.34;;;17.65;78.13
76448;BME280;65284;51.040;13.722;2023-06-10T04:19:34;99837.22;;;17.68;78.13
76448;BME280;65284;51.040;13.722;2023-06-10T04:22:01;99829.84;;;17.57;78.75
76448;BME280;65284;51.040;13.722;2023-06-10T04:24:28;99832.34;;;17.45;78.88
76448;BME280;65284;51.040;13.722;2023-06-10T04:26:55;99836.81;;;17.71;78.18
76448;BME280;65284;51.040;13.722;2023-06-10T04:29:21;99836.00;;;17.64;78.16
76448;BME280;65284;51.040;13.722;2023-06-10T04:31:48;99832.28;;;17.79;77.73
76448;BME280;65284;51.040;13.722;2023-06-10T04:34:15;99836.81;;;17.85;76.61
76448;BME280;65284;51.040;13.722;2023-06-10T04:36:41;99836.00;;;17.78;77.52
76448;BME280;65284;51.040;13.722;2023-06-10T04:39:08;99834.31;;;17.77;77.67
76448;BME280;65284;51.040;13.722;2023-06-10T04:41:35;99828.81;;;18.16;76.54
76448;BME280;65284;51.040;13.722;2023-06-10T04:44:02;99833.66;;;18.33;76.07
76448;BME280;65284;51.040;13.722;2023-06-10T04:46:29;99835.34;;;18.34;75.94
76448;BME280;65284;51.040;13.722;2023-06-10T04:48:57;99834.53;;;18.27;76.00
76448;BME280;65284;51.040;13.722;2023-06-10T04:51:23;99832.91;;;18.26;75.80
76448;BME280;65284;51.040;13.722;2023-06-10T04:53:49;99835.81;;;18.17;76.17
76448;BME280;65284;51.040;13.722;2023-06-10T04:56:16;99836.72;;;17.98;77.06
76448;BME280;65284;51.040;13.722;2023-06-10T04:58:42;99835.88;;;18.11;76.79
76448;BME280;65284;51.040;13.722;2023-06-10T05:01:09;99832.56;;;18.09;76.63
76448;BME280;65284;51.040;13.722;2023-06-10T05:03:35;99839.28;;;18.31;76.43
76448;BME280;65284;51.040;13.722;2023-06-10T05:06:02;99835.41;;;18.21;76.40
76448;BME280;65284;51.040;13.722;2023-06-10T05:08:29;99838.69;;;18.23;76.29
76448;BME280;65284;51.040;13.722;2023-06-10T05:10:55;99840.09;;;18.32;76.13
76448;BME280;65284;51.040;13.722;2023-06-10T05:13:21;99839.22;;;18.38;76.18
76448;BME280;65284;51.040;13.722;2023-06-10T05:15:48;99838.63;;;18.36;76.16
76448;BME280;65284;51.040;13.722;2023-06-10T05:18:14;99835.72;;;18.37;75.78
76448;BME280;65284;51.040;13.722;2023-06-10T05:20:41;99837.56;;;18.69;75.42
76448;BME280;65284;51.040;13.722;2023-06-10T05:23:07;99846.91;;;18.98;74.76
76448;BME280;65284;51.040;13.722;2023-06-10T05:25:34;99847.19;;;19.15;73.81
76448;BME280;65284;51.040;13.722;2023-06-10T05:28:01;99844.44;;;18.96;73.84
76448;BME280;65284;51.040;13.722;2023-06-10T05:30:28;99850.09;;;18.88;73.69
76448;BME280;65284;51.040;13.722;2023-06-10T05:32:54;99842.97;;;18.75;73.45
76448;BME280;65284;51.040;13.722;2023-06-10T05:35:22;99854.34;;;18.71;73.98
76448;BME280;65284;51.040;13.722;2023-06-10T05:37:49;99851.69;;;18.64;74.64
76448;BME280;65284;51.040;13.722;2023-06-10T05:40:15;99855.13;;;18.78;74.37
76448;BME280;65284;51.040;13.722;2023-06-10T05:42:42;99858.22;;;19.31;72.51
76448;BME280;65284;51.040;13.722;2023-06-10T05:45:09;99856.69;;;19.17;72.41
76448;BME280;65284;51.040;13.722;2023-06-10T05:47:36;99857.88;;;19.21;72.29
76448;BME280;65284;51.040;13.722;2023-06-10T05:50:03;99861.34;;;19.03;72.87
76448;BME280;65284;51.040;13.722;2023-06-10T05:52:33;99862.81;;;19.24;72.22
76448;BME280;65284;51.040;13.722;2023-06-10T05:55:00;99861.25;;;19.17;72.55
76448;BME280;65284;51.040;13.722;2023-06-10T05:57:27;99864.09;;;19.22;72.54
76448;BME280;65284;51.040;13.722;2023-06-10T05:59:53;99862.44;;;19.21;72.55
76448;BME280;65284;51.040;13.722;2023-06-10T06:02:20;99855.97;;;19.03;72.87
76448;BME280;65284;51.040;13.722;2023-06-10T06:04:46;99856.13;;;19.08;73.27
76448;BME280;65284;51.040;13.722;2023-06-10T06:07:13;99864.88;;;19.29;72.25
76448;BME280;65284;51.040;13.722;2023-06-10T06:09:39;99868.91;;;19.38;72.10
76448;BME280;65284;51.040;13.722;2023-06-10T06:12:06;99870.84;;;19.31;72.31
76448;BME280;65284;51.040;13.722;2023-06-10T06:14:37;99865.16;;;19.21;72.56
76448;BME280;65284;51.040;13.722;2023-06-10T06:17:05;99865.53;;;19.43;71.89
76448;BME280;65284;51.040;13.722;2023-06-10T06:19:31;99866.25;;;19.57;71.38
76448;BME280;65284;51.040;13.722;2023-06-10T06:21:58;99866.16;;;19.63;71.13
76448;BME280;65284;51.040;13.722;2023-06-10T06:24:24;99865.50;;;19.49;71.45
76448;BME280;65284;51.040;13.722;2023-06-10T06:26:51;99865.09;;;19.46;71.49
76448;BME280;65284;51.040;13.722;2023-06-10T06:29:17;99867.44;;;19.61;71.50
76448;BME280;65284;51.040;13.722;2023-06-10T06:31:44;99864.16;;;19.59;71.27
76448;BME280;65284;51.040;13.722;2023-06-10T06:34:10;99870.03;;;19.49;71.55
76448;BME280;65284;51.040;13.722;2023-06-10T06:36:41;99874.88;;;19.65;70.94
76448;BME280;65284;51.040;13.722;2023-06-10T06:39:08;99865.25;;;19.76;70.97
76448;BME280;65284;51.040;13.722;2023-06-10T06:41:34;99868.50;;;19.96;70.03
76448;BME280;65284;51.040;13.722;2023-06-10T06:44:01;99871.22;;;19.96;69.73
76448;BME280;65284;51.040;13.722;2023-06-10T06:46:27;99872.72;;;19.74;70.29
76448;BME280;65284;51.040;13.722;2023-06-10T06:48:54;99883.66;;;19.79;70.18
76448;BME280;65284;51.040;13.722;2023-06-10T06:51:21;99885.59;;;20.09;69.41
76448;BME280;65284;51.040;13.722;2023-06-10T06:53:47;99887.00;;;19.93;69.36
76448;BME280;65284;51.040;13.722;2023-06-10T06:56:16;99889.94;;;19.91;70.06
76448;BME280;65284;51.040;13.722;2023-06-10T06:58:43;99892.25;;;20.06;69.38
76448;BME280;65284;51.040;13.722;2023-06-10T07:01:09;99893.38;;;19.98;69.68
76448;BME280;65284;51.040;13.722;2023-06-10T07:03:36;99902.69;;;20.03;69.53
76448;BME280;65284;51.040;13.722;2023-06-10T07:06:03;99905.63;;;20.31;68.95
76448;BME280;65284;51.040;13.722;2023-06-10T07:08:29;99908.22;;;20.38;69.15
76448;BME280;65284;51.040;13.722;2023-06-10T07:10:56;99906.19;;;20.52;69.15
76448;BME280;65284;51.040;13.722;2023-06-10T07:13:22;99913.53;;;20.63;68.82
76448;BME280;65284;51.040;13.722;2023-06-10T07:15:49;99910.78;;;20.81;68.45
76448;BME280;65284;51.040;13.722;2023-06-10T07:18:15;99911.16;;;20.97;68.15
76448;BME280;65284;51.040;13.722;2023-06-10T07:20:43;99917.69;;;21.19;67.68
76448;BME280;65284;51.040;13.722;2023-06-10T07:23:10;99916.88;;;21.30;67.60
76448;BME280;65284;51.040;13.722;2023-06-10T07:25:36;99907.88;;;21.37;66.90
76448;BME280;65284;51.040;13.722;2023-06-10T07:28:03;99920.44;;;21.43;66.46
76448;BME280;65284;51.040;13.722;2023-06-10T07:30:29;99915.34;;;21.34;66.58
76448;BME280;65284;51.040;13.722;2023-06-10T07:32:56;99917.44;;;21.32;66.31
76448;BME280;65284;51.040;13.722;2023-06-10T07:35:22;99923.25;;;21.36;66.48
76448;BME280;65284;51.040;13.722;2023-06-10T07:37:49;99921.03;;;21.56;66.09
76448;BME280;65284;51.040;13.722;2023-06-10T07:40:15;99921.03;;;21.45;66.18
76448;BME280;65284;51.040;13.722;2023-06-10T07:42:42;99928.19;;;21.74;65.28
76448;BME280;65284;51.040;13.722;2023-06-10T07:45:09;99925.25;;;21.64;65.78
76448;BME280;65284;51.040;13.722;2023-06-10T07:47:36;99935.25;;;21.75;65.55
76448;BME280;65284;51.040;13.722;2023-06-10T07:50:03;99929.63;;;21.53;65.69
76448;BME280;65284;51.040;13.722;2023-06-10T07:52:30;99930.44;;;21.54;65.94
76448;BME280;65284;51.040;13.722;2023-06-10T07:54:57;99932.41;;;21.70;65.98
76448;BME280;65284;51.040;13.722;2023-06-10T07:57:23;99931.84;;;21.80;65.84
76448;BME280;65284;51.040;13.722;2023-06-10T07:59:50;99931.38;;;21.71;66.07
76448;BME280;65284;51.040;13.722;2023-06-10T08:02:17;99931.38;;;21.71;65.82
76448;BME280;65284;51.040;13.722;2023-06-10T08:04:43;99932.03;;;22.02;64.77
76448;BME280;65284;51.040;13.722;2023-06-10T08:07:10;99931.06;;;22.08;64.97
76448;BME280;65284;51.040;13.722;2023-06-10T08:09:36;99934.47;;;22.27;64.28
76448;BME280;65284;51.040;13.722;2023-06-10T08:12:03;99931.66;;;22.34;64.33
76448;BME280;65284;51.040;13.722;2023-06-10T08:14:29;99936.94;;;22.29;64.41
76448;BME280;65284;51.040;13.722;2023-06-10T08:16:56;99935.78;;;22.24;64.05
76448;BME280;65284;51.040;13.722;2023-06-10T08:19:22;99938.03;;;22.28;64.78
76448;BME280;65284;51.040;13.722;2023-06-10T08:21:49;99941.19;;;22.24;64.39
76448;BME280;65284;51.040;13.722;2023-06-10T08:24:15;99947.09;;;22.21;64.36
76448;BME280;65284;51.040;13.722;2023-06-10T08:26:44;99947.09;;;22.21;64.57
76448;BME280;65284;51.040;13.722;2023-06-10T08:29:12;99945.66;;;22.31;64.66
76448;BME280;65284;51.040;13.722;2023-06-10T08:31:43;99948.44;;;22.36;64.29
76448;BME280;65284;51.040;13.722;2023-06-10T08:34:09;99937.34;;;22.49;64.00
76448;BME280;65284;51.040;13.722;2023-06-10T08:36:36;99949.91;;;22.55;63.53
76448;BME280;65284;51.040;13.722;2023-06-10T08:39:03;99940.66;;;22.51;63.40
76448;BME280;65284;51.040;13.722;2023-06-10T08:41:34;99936.88;;;22.52;62.98
76448;BME280;65284;51.040;13.722;2023-06-10T08:44:10;99935.34;;;22.44;62.40
76448;BME280;65284;51.040;13.722;2023-06-10T08:46:42;99931.72;;;22.39;63.16
76448;BME280;65284;51.040;13.722;2023-06-10T08:49:16;99930.09;;;22.38;64.16
76448;BME280;65284;51.040;13.722;2023-06-10T08:51:45;99927.00;;;22.46;63.87
76448;BME280;65284;51.040;13.722;2023-06-10T08:54:21;99924.59;;;22.61;63.75
76448;BME280;65284;51.040;13.722;2023-06-10T08:56:51;99927.09;;;22.80;62.29
76448;BME280;65284;51.040;13.722;2023-06-10T08:59:20;99928.50;;;22.82;61.69
76448;BME280;65284;51.040;13.722;2023-06-10T09:01:47;99927.66;;;23.10;61.01
76448;BME280;65284;51.040;13.722;2023-06-10T09:04:14;99923.72;;;23.18;61.18
76448;BME280;65284;51.040;13.722;2023-06-10T09:06:42;99926.25;;;23.25;60.08
76448;BME280;65284;51.040;13.722;2023-06-10T09:09:09;99928.81;;;23.14;60.00
76448;BME280;65284;51.040;13.722;2023-06-10T09:11:36;99914.78;;;22.89;60.72
76448;BME280;65284;51.040;13.722;2023-06-10T09:14:04;99921.66;;;23.08;60.59
76448;BME280;65284;51.040;13.722;2023-06-10T09:16:30;99918.88;;;23.20;60.54
76448;BME280;65284;51.040;13.722;2023-06-10T09:18:57;99924.38;;;23.42;60.01
76448;BME280;65284;51.040;13.722;2023-06-10T09:21:25;99919.34;;;23.51;60.21
76448;BME280;65284;51.040;13.722;2023-06-10T09:23:51;99921.75;;;23.30;60.33
76448;BME280;65284;51.040;13.722;2023-06-10T09:26:18;99919.78;;;23.43;60.23
76448;BME280;65284;51.040;13.722;2023-06-10T09:28:48;99921.81;;;23.52;60.04
76448;BME280;65284;51.040;13.722;2023-06-10T09:31:15;99925.53;;;23.46;60.39
76448;BME280;65284;51.040;13.722;2023-06-10T09:33:45;99921.41;;;23.60;60.04
76448;BME280;65284;51.040;13.722;2023-06-10T09:36:21;99924.16;;;23.66;60.52
76448;BME280;65284;51.040;13.722;2023-06-10T09:38:49;99918.25;;;23.69;59.28
76448;BME280;65284;51.040;13.722;2023-06-10T09:41:16;99925.00;;;23.83;59.03
76448;BME280;65284;51.040;13.722;2023-06-10T09:43:43;99921.97;;;23.79;59.40
76448;BME280;65284;51.040;13.722;2023-06-10T09:46:17;99920.50;;;23.72;59.00
76448;BME280;65284;51.040;13.722;2023-06-10T09:48:45;99922.53;;;23.65;56.56
76448;BME280;65284;51.040;13.722;2023-06-10T09:51:15;99923.84;;;23.62;57.18
76448;BME280;65284;51.040;13.722;2023-06-10T09:53:49;99923.38;;;23.48;57.18
76448;BME280;65284;51.040;13.722;2023-06-10T09:56:17;99929.19;;;23.57;57.54
76448;BME280;65284;51.040;13.722;2023-06-10T09:58:45;99924.66;;;23.62;57.41
76448;BME280;65284;51.040;13.722;2023-06-10T10:01:14;99925.16;;;23.59;57.74
76448;BME280;65284;51.040;13.722;2023-06-10T10:03:48;99915.47;;;23.64;57.68
76448;BME280;65284;51.040;13.722;2023-06-10T10:06:16;99916.31;;;23.64;58.19
76448;BME280;65284;51.040;13.722;2023-06-10T10:08:44;99926.34;;;23.64;57.90
76448;BME280;65284;51.040;13.722;2023-06-10T10:11:11;99917.78;;;23.72;57.73
76448;BME280;65284;51.040;13.722;2023-06-10T10:13:38;99920.88;;;23.80;57.49
76448;BME280;65284;51.040;13.722;2023-06-10T10:16:17;99912.91;;;23.91;57.89
76448;BME280;65284;51.040;13.722;2023-06-10T10:18:49;99916.25;;;23.98;57.22
76448;BME280;65284;51.040;13.722;2023-06-10T10:21:22;99905.69;;;24.01;57.16
76448;BME280;65284;51.040;13.722;2023-06-10T10:24:07;99904.38;;;24.04;56.92
76448;BME280;65284;51.040;13.722;2023-06-10T10:26:37;99907.97;;;24.10;56.94
76448;BME280;65284;51.040;13.722;2023-06-10T10:29:11;99905.19;;;24.04;57.59
76448;BME280;65284;51.040;13.722;2023-06-10T10:31:42;99916.56;;;24.01;57.63
76448;BME280;65284;51.040;13.722;2023-06-10T10:34:15;99920.41;;;24.05;57.60
76448;BME280;65284;51.040;13.722;2023-06-10T10:36:43;99917.31;;;24.19;57.47
76448;BME280;65284;51.040;13.722;2023-06-10T10:39:11;99919.25;;;24.01;57.54
76448;BME280;65284;51.040;13.722;2023-06-10T10:41:39;99915.44;;;23.97;57.68
76448;BME280;65284;51.040;13.722;2023-06-10T10:44:06;99917.19;;;24.09;58.12
76448;BME280;65284;51.040;13.722;2023-06-10T10:46:43;99912.41;;;24.16;57.60
76448;BME280;65284;51.040;13.722;2023-06-10T10:49:13;99926.91;;;24.48;56.47
76448;BME280;65284;51.040;13.722;2023-06-10T10:51:59;99920.38;;;24.44;56.65
76448;BME280;65284;51.040;13.722;2023-06-10T10:54:34;99914.53;;;24.58;56.09
76448;BME280;65284;51.040;13.722;2023-06-10T10:57:18;99911.25;;;24.56;55.76
76448;BME280;65284;51.040;13.722;2023-06-10T11:02:17;99895.06;;;24.66;54.83
76448;BME280;65284;51.040;13.722;2023-06-10T11:04:47;99897.91;;;24.81;54.38
76448;BME280;65284;51.040;13.722;2023-06-10T11:07:15;99903.47;;;24.91;54.63
76448;BME280;65284;51.040;13.722;2023-06-10T11:10:02;99904.78;;;25.16;53.71
76448;BME280;65284;51.040;13.722;2023-06-10T11:15:18;99888.94;;;25.45;51.24
76448;BME280;65284;51.040;13.722;2023-06-10T11:20:42;99882.75;;;25.50;49.59
76448;BME280;65284;51.040;13.722;2023-06-10T11:23:08;99874.00;;;25.48;48.51
76448;BME280;65284;51.040;13.722;2023-06-10T11:25:39;99876.81;;;25.63;48.02
76448;BME280;65284;51.040;13.722;2023-06-10T11:28:19;99879.81;;;25.67;48.23
76448;BME280;65284;51.040;13.722;2023-06-10T11:30:46;99867.03;;;25.67;47.83
76448;BME280;65284;51.040;13.722;2023-06-10T11:33:16;99870.28;;;25.64;47.94
76448;BME280;65284;51.040;13.722;2023-06-10T11:35:43;99862.03;;;25.49;47.77
76448;BME280;65284;51.040;13.722;2023-06-10T11:38:10;99865.81;;;25.42;48.07
76448;BME280;65284;51.040;13.722;2023-06-10T11:40:36;99866.63;;;25.38;48.57
76448;BME280;65284;51.040;13.722;2023-06-10T11:43:04;99864.19;;;25.47;48.51
76448;BME280;65284;51.040;13.722;2023-06-10T11:45:30;99861.47;;;25.47;48.50
76448;BME280;65284;51.040;13.722;2023-06-10T11:47:57;99864.50;;;25.50;48.57
76448;BME280;65284;51.040;13.722;2023-06-10T11:50:31;99854.44;;;25.51;48.49
76448;BME280;65284;51.040;13.722;2023-06-10T11:52:58;99854.00;;;25.69;47.99
76448;BME280;65284;51.040;13.722;2023-06-10T11:55:44;99853.47;;;25.72;48.23
76448;BME280;65284;51.040;13.722;2023-06-10T11:58:21;99845.41;;;25.87;47.87
76448;BME280;65284;51.040;13.722;2023-06-10T12:00:50;99864.00;;;26.06;47.15
76448;BME280;65284;51.040;13.722;2023-06-10T12:03:17;99846.59;;;26.12;46.98
76448;BME280;65284;51.040;13.722;2023-06-10T12:05:57;99853.13;;;26.16;46.71
76448;BME280;65284;51.040;13.722;2023-06-10T12:08:25;99852.06;;;26.22;46.31
76448;BME280;65284;51.040;13.722;2023-06-10T12:10:51;99849.88;;;26.29;46.08
76448;BME280;65284;51.040;13.722;2023-06-10T12:13:18;99838.75;;;26.31;45.31
76448;BME280;65284;51.040;13.722;2023-06-10T12:15:45;99838.75;;;26.31;43.82
76448;BME280;65284;51.040;13.722;2023-06-10T12:18:19;99843.91;;;26.38;42.84
76448;BME280;65284;51.040;13.722;2023-06-10T12:20:46;99831.41;;;26.37;42.78
76448;BME280;65284;51.040;13.722;2023-06-10T12:23:15;99833.59;;;26.40;43.65
76448;BME280;65284;51.040;13.722;2023-06-10T12:25:49;99825.69;;;26.43;43.62
76448;BME280;65284;51.040;13.722;2023-06-10T12:28:17;99820.56;;;26.52;43.24
76448;BME280;65284;51.040;13.722;2023-06-10T12:30:46;99816.19;;;26.51;43.62
76448;BME280;65284;51.040;13.722;2023-06-10T12:33:17;99804.78;;;26.59;42.51
76448;BME280;65284;51.040;13.722;2023-06-10T12:35:48;99821.13;;;26.59;42.19
76448;BME280;65284;51.040;13.722;2023-06-10T12:38:24;99820.00;;;26.55;41.60
76448;BME280;65284;51.040;13.722;2023-06-10T12:40:51;99811.25;;;26.48;41.23
76448;BME280;65284;51.040;13.722;2023-06-10T12:43:20;99818.38;;;26.54;41.36
76448;BME280;65284;51.040;13.722;2023-06-10T12:45:47;99820.28;;;26.53;41.29
76448;BME280;65284;51.040;13.722;2023-06-10T12:48:22;99820.25;;;26.43;40.96
76448;BME280;65284;51.040;13.722;2023-06-10T12:50:53;99811.56;;;26.51;41.40
76448;BME280;65284;51.040;13.722;2023-06-10T12:53:21;99811.28;;;26.53;40.26
76448;BME280;65284;51.040;13.722;2023-06-10T12:55:50;99814.84;;;26.64;39.90
76448;BME280;65284;51.040;13.722;2023-06-10T12:58:17;99820.00;;;26.70;39.78
76448;BME280;65284;51.040;13.722;2023-06-10T13:00:43;99818.91;;;26.56;40.40
76448;BME280;65284;51.040;13.722;2023-06-10T13:03:10;99801.22;;;26.69;41.15
76448;BME280;65284;51.040;13.722;2023-06-10T13:05:37;99814.31;;;26.77;40.70